sensor_id;sensor_type;location;lat;lon;timestamp;pressure;altitude;pressure_sealevel;temperature;humidity
21102;BME280;10709;49.006;12.100;2023-05-02T00:02:09;48891.00;;;-146.00;80.13
21102;BME280;10709;49.006;12.100;2023-05-02T00:04:36;48902.75;;;-146.00;79.78
21102;BME280;10709;49.006;12.100;2023-05-02T00:07:03;48902.75;;;-146.00;79.62
21102;BME280;10709;49.006;12.100;2023-05-02T00:09:32;48824.41;;;-146.00;79.71
21102;BME280;10709;49.006;12.100;2023-05-02T00:11:58;48871.41;;;-146.00;79.51
21102;BME280;10709;49.006;12.100;2023-05-02T00:14:25;48887.09;;;-146.00;79.97
21102;BME280;10709;49.006;12.100;2023-05-02T00:16:52;48881.22;;;-146.00;80.18
21102;BME280;10709;49.006;12.100;2023-05-02T00:19:18;48887.09;;;-146.00;80.14
21102;BME280;10709;49.006;12.100;2023-05-02T00:21:48;48859.66;;;-146.00;80.47
21102;BME280;10709;49.006;12.100;2023-05-02T00:24:16;48883.16;;;-146.00;80.45
21102;BME280;10709;49.006;12.100;2023-05-02T00:26:43;48855.75;;;-146.00;80.65
21102;BME280;10709;49.006;12.100;2023-05-02T00:29:09;48863.56;;;-146.00;80.23
21102;BME280;10709;49.006;12.100;2023-05-02T00:31:39;48877.28;;;-146.00;80.42
21102;BME280;10709;49.006;12.100;2023-05-02T00:34:06;48891.00;;;-146.00;80.69
21102;BME280;10709;49.006;12.100;2023-05-02T00:36:36;48898.84;;;-146.00;80.57
21102;BME280;10709;49.006;12.100;2023-05-02T00:39:03;48914.50;;;-146.00;80.86
21102;BME280;10709;49.006;12.100;2023-05-02T00:41:30;48883.16;;;-146.00;80.60
21102;BME280;10709;49.006;12.100;2023-05-02T00:43:57;48922.34;;;-146.00;80.54
21102;BME280;10709;49.006;12.100;2023-05-02T00:46:23;48887.09;;;-146.00;81.10
21102;BME280;10709;49.006;12.100;2023-05-02T00:48:50;48898.84;;;-146.00;81.37
21102;BME280;10709;49.006;12.100;2023-05-02T00:51:16;48892.97;;;-146.00;81.68
21102;BME280;10709;49.006;12.100;2023-05-02T00:53:43;48885.13;;;-146.00;82.00
21102;BME280;10709;49.006;12.100;2023-05-02T00:56:12;48906.69;;;-146.00;81.89
21102;BME280;10709;49.006;12.100;2023-05-02T00:58:39;48928.22;;;-146.00;81.71
21102;BME280;10709;49.006;12.100;2023-05-02T01:03:41;48883.16;;;-146.00;81.34
21102;BME280;10709;49.006;12.100;2023-05-02T01:06:27;48906.69;;;-146.00;81.18
21102;BME280;10709;49.006;12.100;2023-05-02T01:12:12;48910.59;;;-146.00;81.12
21102;BME280;10709;49.006;12.100;2023-05-02T01:14:41;48855.75;;;-146.00;80.52
21102;BME280;10709;49.006;12.100;2023-05-02T01:17:14;48879.25;;;-146.00;81.08
21102;BME280;10709;49.006;12.100;2023-05-02T01:19:44;48863.56;;;-146.00;80.85
21102;BME280;10709;49.006;12.100;2023-05-02T01:22:15;48877.28;;;-146.00;80.84
21102;BME280;10709;49.006;12.100;2023-05-02T01:24:53;48875.34;;;-146.00;80.75
21102;BME280;10709;49.006;12.100;2023-05-02T01:27:39;48879.25;;;-146.00;80.33
21102;BME280;10709;49.006;12.100;2023-05-02T01:30:10;48865.53;;;-146.00;80.41
21102;BME280;10709;49.006;12.100;2023-05-02T01:32:38;48847.91;;;-146.00;80.53
21102;BME280;10709;49.006;12.100;2023-05-02T01:35:08;48879.25;;;-146.00;80.69
21102;BME280;10709;49.006;12.100;2023-05-02T01:37:39;48844.00;;;-146.00;80.63
21102;BME280;10709;49.006;12.100;2023-05-02T01:40:08;48892.97;;;-146.00;80.73
21102;BME280;10709;49.006;12.100;2023-05-02T01:42:39;48887.09;;;-146.00;80.73
21102;BME280;10709;49.006;12.100;2023-05-02T01:45:07;48887.09;;;-146.00;80.54
21102;BME280;10709;49.006;12.100;2023-05-02T01:47:39;48857.69;;;-146.00;80.60
21102;BME280;10709;49.006;12.100;2023-05-02T01:50:07;48851.81;;;-146.00;80.35
21102;BME280;10709;49.006;12.100;2023-05-02T01:52:36;48867.50;;;-146.00;80.34
21102;BME280;10709;49.006;12.100;2023-05-02T01:55:08;48855.75;;;-146.00;80.62
21102;BME280;10709;49.006;12.100;2023-05-02T01:57:38;48881.22;;;-146.00;80.57
21102;BME280;10709;49.006;12.100;2023-05-02T02:00:06;48859.66;;;-146.00;80.19
21102;BME280;10709;49.006;12.100;2023-05-02T02:02:36;48849.88;;;-146.00;80.24
21102;BME280;10709;49.006;12.100;2023-05-02T02:05:04;48863.56;;;-146.00;80.21
21102;BME280;10709;49.006;12.100;2023-05-02T02:07:32;48859.66;;;-146.00;80.61
21102;BME280;10709;49.006;12.100;2023-05-02T02:09:59;48898.84;;;-146.00;80.60
21102;BME280;10709;49.006;12.100;2023-05-02T02:12:30;48875.34;;;-146.00;80.43
21102;BME280;10709;49.006;12.100;2023-05-02T02:15:17;48867.50;;;-146.00;80.88
21102;BME280;10709;49.006;12.100;2023-05-02T02:17:48;48840.06;;;-146.00;80.88
21102;BME280;10709;49.006;12.100;2023-05-02T02:20:21;48855.75;;;-146.00;81.34
21102;BME280;10709;49.006;12.100;2023-05-02T02:22:48;48883.16;;;-146.00;81.47
21102;BME280;10709;49.006;12.100;2023-05-02T02:25:18;48914.50;;;-146.00;82.23
21102;BME280;10709;49.006;12.100;2023-05-02T02:27:46;48906.69;;;-146.00;82.16
21102;BME280;10709;49.006;12.100;2023-05-02T02:30:13;48908.63;;;-146.00;82.91
21102;BME280;10709;49.006;12.100;2023-05-02T02:32:39;48871.41;;;-146.00;83.19
21102;BME280;10709;49.006;12.100;2023-05-02T02:35:09;48894.91;;;-146.00;82.94
21102;BME280;10709;49.006;12.100;2023-05-02T02:37:40;48910.59;;;-146.00;82.72
21102;BME280;10709;49.006;12.100;2023-05-02T02:43:18;48928.22;;;-146.00;81.86
21102;BME280;10709;49.006;12.100;2023-05-02T02:46:05;48883.16;;;-146.00;81.86
21102;BME280;10709;49.006;12.100;2023-05-02T02:48:42;48898.84;;;-146.00;81.77
21102;BME280;10709;49.006;12.100;2023-05-02T02:51:13;48867.50;;;-146.00;81.67
21102;BME280;10709;49.006;12.100;2023-05-02T02:53:51;48881.22;;;-146.00;81.55
21102;BME280;10709;49.006;12.100;2023-05-02T02:56:28;48894.91;;;-146.00;81.59
21102;BME280;10709;49.006;12.100;2023-05-02T02:59:06;48883.16;;;-146.00;81.48
21102;BME280;10709;49.006;12.100;2023-05-02T03:01:38;48863.56;;;-146.00;81.28
21102;BME280;10709;49.006;12.100;2023-05-02T03:04:07;48834.19;;;-146.00;81.30
21102;BME280;10709;49.006;12.100;2023-05-02T03:06:36;48894.91;;;-146.00;81.56
21102;BME280;10709;49.006;12.100;2023-05-02T03:09:03;48904.72;;;-146.00;81.47
21102;BME280;10709;49.006;12.100;2023-05-02T03:11:31;48855.75;;;-146.00;81.99
21102;BME280;10709;49.006;12.100;2023-05-02T03:13:58;48898.84;;;-146.00;81.74
21102;BME280;10709;49.006;12.100;2023-05-02T03:16:35;48865.53;;;-146.00;82.25
21102;BME280;10709;49.006;12.100;2023-05-02T03:19:03;48871.41;;;-146.00;82.21
21102;BME280;10709;49.006;12.100;2023-05-02T03:21:30;48891.00;;;-146.00;82.10
21102;BME280;10709;49.006;12.100;2023-05-02T03:24:01;48894.91;;;-146.00;81.84
21102;BME280;10709;49.006;12.100;2023-05-02T03:26:28;48877.28;;;-146.00;81.86
21102;BME280;10709;49.006;12.100;2023-05-02T03:28:55;48910.59;;;-146.00;82.18
21102;BME280;10709;49.006;12.100;2023-05-02T03:31:24;48912.56;;;-146.00;82.06
21102;BME280;10709;49.006;12.100;2023-05-02T03:33:52;48853.78;;;-146.00;82.21
21102;BME280;10709;49.006;12.100;2023-05-02T03:36:19;48898.84;;;-146.00;82.16
21102;BME280;10709;49.006;12.100;2023-05-02T03:38:46;48914.50;;;-146.00;82.37
21102;BME280;10709;49.006;12.100;2023-05-02T03:41:12;48922.34;;;-146.00;82.31
21102;BME280;10709;49.006;12.100;2023-05-02T03:43:39;48918.44;;;-146.00;82.53
21102;BME280;10709;49.006;12.100;2023-05-02T03:46:06;48887.09;;;-146.00;82.23
21102;BME280;10709;49.006;12.100;2023-05-02T03:48:34;48926.25;;;-146.00;82.71
21102;BME280;10709;49.006;12.100;2023-05-02T03:51:02;48906.69;;;-146.00;82.97
21102;BME280;10709;49.006;12.100;2023-05-02T03:53:29;48894.91;;;-146.00;82.65
21102;BME280;10709;49.006;12.100;2023-05-02T03:55:57;48891.00;;;-146.00;83.13
21102;BME280;10709;49.006;12.100;2023-05-02T03:58:24;48902.75;;;-146.00;83.21
21102;BME280;10709;49.006;12.100;2023-05-02T04:00:52;48859.66;;;-146.00;82.88
21102;BME280;10709;49.006;12.100;2023-05-02T04:03:20;48934.09;;;-146.00;83.12
21102;BME280;10709;49.006;12.100;2023-05-02T04:05:47;48894.91;;;-146.00;83.60
21102;BME280;10709;49.006;12.100;2023-05-02T04:08:14;48914.50;;;-146.00;83.95
21102;BME280;10709;49.006;12.100;2023-05-02T04:10:43;48922.34;;;-146.00;83.71
21102;BME280;10709;49.006;12.100;2023-05-02T04:13:11;48957.59;;;-146.00;84.61
21102;BME280;10709;49.006;12.100;2023-05-02T04:15:38;48902.75;;;-146.00;84.14
21102;BME280;10709;49.006;12.100;2023-05-02T04:18:05;48945.84;;;-146.00;84.00
21102;BME280;10709;49.006;12.100;2023-05-02T04:20:32;48949.78;;;-146.00;84.62
21102;BME280;10709;49.006;12.100;2023-05-02T04:22:59;48957.59;;;-146.00;84.34
21102;BME280;10709;49.006;12.100;2023-05-02T04:25:29;48926.25;;;-146.00;84.89
21102;BME280;10709;49.006;12.100;2023-05-02T04:27:56;48926.25;;;-146.00;85.44
21102;BME280;10709;49.006;12.100;2023-05-02T04:30:22;48941.94;;;-146.00;85.34
21102;BME280;10709;49.006;12.100;2023-05-02T04:32:49;48961.53;;;-146.00;85.86
21102;BME280;10709;49.006;12.100;2023-05-02T04:35:16;48957.59;;;-146.00;87.02
21102;BME280;10709;49.006;12.100;2023-05-02T04:37:42;48938.03;;;-146.00;89.29
21102;BME280;10709;49.006;12.100;2023-05-02T04:40:09;48957.59;;;-146.00;89.81
21102;BME280;10709;49.006;12.100;2023-05-02T04:42:37;48955.66;;;-146.00;90.13
21102;BME280;10709;49.006;12.100;2023-05-02T04:45:06;48973.28;;;-146.00;90.42
21102;BME280;10709;49.006;12.100;2023-05-02T04:47:33;48951.72;;;-146.00;90.73
21102;BME280;10709;49.006;12.100;2023-05-02T04:49:59;48957.59;;;-146.00;92.08
21102;BME280;10709;49.006;12.100;2023-05-02T04:52:35;48975.25;;;-146.00;92.18
21102;BME280;10709;49.006;12.100;2023-05-02T04:55:02;48934.09;;;-146.00;92.89
21102;BME280;10709;49.006;12.100;2023-05-02T04:57:31;48953.69;;;-146.00;93.16
21102;BME280;10709;49.006;12.100;2023-05-02T04:59:58;48959.56;;;-146.00;93.90
21102;BME280;10709;49.006;12.100;2023-05-02T05:02:28;48977.19;;;-146.00;93.40
21102;BME280;10709;49.006;12.100;2023-05-02T05:04:55;48957.59;;;-146.00;93.56
21102;BME280;10709;49.006;12.100;2023-05-02T05:07:22;48965.44;;;-146.00;92.30
21102;BME280;10709;49.006;12.100;2023-05-02T05:09:51;48985.03;;;-146.00;95.75
21102;BME280;10709;49.006;12.100;2023-05-02T05:12:18;48957.59;;;-146.00;95.64
21102;BME280;10709;49.006;12.100;2023-05-02T05:14:47;48955.66;;;-146.00;96.04
21102;BME280;10709;49.006;12.100;2023-05-02T05:17:15;48936.06;;;-146.00;98.16
21102;BME280;10709;49.006;12.100;2023-05-02T05:19:41;48949.78;;;-146.00;98.21
21102;BME280;10709;49.006;12.100;2023-05-02T05:22:08;48939.97;;;-146.00;96.65
21102;BME280;10709;49.006;12.100;2023-05-02T05:24:35;48945.84;;;-146.00;96.89
21102;BME280;10709;49.006;12.100;2023-05-02T05:27:02;48938.03;;;-146.00;98.02
21102;BME280;10709;49.006;12.100;2023-05-02T05:29:30;48941.94;;;-146.00;99.19
21102;BME280;10709;49.006;12.100;2023-05-02T05:31:58;48930.19;;;-146.00;99.94
21102;BME280;10709;49.006;12.100;2023-05-02T05:34:25;48938.03;;;-146.00;99.57
21102;BME280;10709;49.006;12.100;2023-05-02T05:36:53;48936.06;;;-146.00;100.00
21102;BME280;10709;49.006;12.100;2023-05-02T05:39:21;48918.44;;;-146.00;100.00
21102;BME280;10709;49.006;12.100;2023-05-02T05:41:47;48910.59;;;-146.00;100.00
21102;BME280;10709;49.006;12.100;2023-05-02T05:44:14;48910.59;;;-146.00;100.00
21102;BME280;10709;49.006;12.100;2023-05-02T05:46:41;48912.56;;;-146.00;100.00
21102;BME280;10709;49.006;12.100;2023-05-02T05:49:07;48914.50;;;-146.00;100.00
21102;BME280;10709;49.006;12.100;2023-05-02T05:51:34;48912.56;;;-146.00;100.00
21102;BME280;10709;49.006;12.100;2023-05-02T05:54:02;48916.47;;;-146.00;100.00
21102;BME280;10709;49.006;12.100;2023-05-02T05:56:31;48918.44;;;-146.00;100.00
21102;BME280;10709;49.006;12.100;2023-05-02T05:58:58;48902.75;;;-146.00;100.00
21102;BME280;10709;49.006;12.100;2023-05-02T06:01:25;48920.38;;;-146.00;100.00
21102;BME280;10709;49.006;12.100;2023-05-02T06:03:55;48918.44;;;-146.00;100.00
21102;BME280;10709;49.006;12.100;2023-05-02T06:06:22;48922.34;;;-146.00;100.00
21102;BME280;10709;49.006;12.100;2023-05-02T06:08:48;48914.50;;;-146.00;100.00
21102;BME280;10709;49.006;12.100;2023-05-02T06:11:16;48926.25;;;-146.00;100.00
21102;BME280;10709;49.006;12.100;2023-05-02T06:13:42;48926.25;;;-146.00;100.00
21102;BME280;10709;49.006;12.100;2023-05-02T06:16:09;48914.50;;;-146.00;100.00
21102;BME280;10709;49.006;12.100;2023-05-02T06:18:35;48924.31;;;-146.00;100.00
21102;BME280;10709;49.006;12.100;2023-05-02T06:21:05;48930.19;;;-146.00;99.71
21102;BME280;10709;49.006;12.100;2023-05-02T06:23:32;48926.25;;;-146.00;98.88
21102;BME280;10709;49.006;12.100;2023-05-02T06:26:01;48930.19;;;-146.00;98.04
21102;BME280;10709;49.006;12.100;2023-05-02T06:28:31;48943.91;;;-146.00;98.19
21102;BME280;10709;49.006;12.100;2023-05-02T06:30:59;48963.50;;;-146.00;97.44
21102;BME280;10709;49.006;12.100;2023-05-02T06:33:32;48949.78;;;-146.00;97.76
21102;BME280;10709;49.006;12.100;2023-05-02T06:35:59;48951.72;;;-146.00;97.49
21102;BME280;10709;49.006;12.100;2023-05-02T06:38:27;48938.03;;;-146.00;97.11
21102;BME280;10709;49.006;12.100;2023-05-02T06:40:57;48963.50;;;-146.00;96.78
21102;BME280;10709;49.006;12.100;2023-05-02T06:43:24;48957.59;;;-146.00;96.43
21102;BME280;10709;49.006;12.100;2023-05-02T06:45:53;48953.69;;;-146.00;96.05
21102;BME280;10709;49.006;12.100;2023-05-02T06:48:24;48947.81;;;-146.00;95.64
21102;BME280;10709;49.006;12.100;2023-05-02T06:50:52;48953.69;;;-146.00;96.19
21102;BME280;10709;49.006;12.100;2023-05-02T06:53:19;48953.69;;;-146.00;94.29
21102;BME280;10709;49.006;12.100;2023-05-02T06:55:49;48965.44;;;-146.00;94.78
21102;BME280;10709;49.006;12.100;2023-05-02T06:58:16;48975.25;;;-146.00;93.36
21102;BME280;10709;49.006;12.100;2023-05-02T07:00:42;48955.66;;;-146.00;92.98
21102;BME280;10709;49.006;12.100;2023-05-02T07:03:09;48990.91;;;-146.00;92.40
21102;BME280;10709;49.006;12.100;2023-05-02T07:05:36;48961.53;;;-146.00;92.15
21102;BME280;10709;49.006;12.100;2023-05-02T07:08:06;48965.44;;;-146.00;91.58
21102;BME280;10709;49.006;12.100;2023-05-02T07:10:34;48977.19;;;-146.00;91.33
21102;BME280;10709;49.006;12.100;2023-05-02T07:13:00;49004.63;;;-146.00;91.08
21102;BME280;10709;49.006;12.100;2023-05-02T07:15:27;48981.13;;;-146.00;90.81
21102;BME280;10709;49.006;12.100;2023-05-02T07:17:55;48985.03;;;-146.00;89.66
21102;BME280;10709;49.006;12.100;2023-05-02T07:20:23;48985.03;;;-146.00;89.36
21102;BME280;10709;49.006;12.100;2023-05-02T07:22:51;49010.50;;;-146.00;88.77
21102;BME280;10709;49.006;12.100;2023-05-02T07:25:18;49002.66;;;-146.00;88.49
21102;BME280;10709;49.006;12.100;2023-05-02T07:27:46;48969.38;;;-146.00;88.04
21102;BME280;10709;49.006;12.100;2023-05-02T07:30:13;48979.16;;;-146.00;87.18
21102;BME280;10709;49.006;12.100;2023-05-02T07:32:39;48965.44;;;-146.00;85.11
21102;BME280;10709;49.006;12.100;2023-05-02T07:35:07;48996.78;;;-146.00;85.25
21102;BME280;10709;49.006;12.100;2023-05-02T07:37:34;48996.78;;;-146.00;84.77
21102;BME280;10709;49.006;12.100;2023-05-02T07:40:05;48992.88;;;-146.00;84.17
21102;BME280;10709;49.006;12.100;2023-05-02T07:42:34;48987.00;;;-146.00;84.16
21102;BME280;10709;49.006;12.100;2023-05-02T07:45:01;48977.19;;;-146.00;83.93
21102;BME280;10709;49.006;12.100;2023-05-02T07:47:29;48996.78;;;-146.00;83.49
21102;BME280;10709;49.006;12.100;2023-05-02T07:49:56;48983.06;;;-146.00;82.71
21102;BME280;10709;49.006;12.100;2023-05-02T07:52:24;48953.69;;;-146.00;81.19
21102;BME280;10709;49.006;12.100;2023-05-02T07:54:51;48957.59;;;-146.00;82.04
21102;BME280;10709;49.006;12.100;2023-05-02T07:57:20;48969.38;;;-146.00;82.46
21102;BME280;10709;49.006;12.100;2023-05-02T07:59:46;48967.41;;;-146.00;83.21
21102;BME280;10709;49.006;12.100;2023-05-02T08:02:14;48957.59;;;-146.00;82.61
21102;BME280;10709;49.006;12.100;2023-05-02T08:04:43;48949.78;;;-146.00;81.65
21102;BME280;10709;49.006;12.100;2023-05-02T08:07:10;48977.19;;;-146.00;80.74
21102;BME280;10709;49.006;12.100;2023-05-02T08:09:40;48945.84;;;-146.00;80.84
21102;BME280;10709;49.006;12.100;2023-05-02T08:12:07;48916.47;;;-146.00;80.62
21102;BME280;10709;49.006;12.100;2023-05-02T08:14:34;48949.78;;;-146.00;80.78
21102;BME280;10709;49.006;12.100;2023-05-02T08:17:01;48977.19;;;-146.00;80.78
21102;BME280;10709;49.006;12.100;2023-05-02T08:19:28;48934.09;;;-146.00;80.06
21102;BME280;10709;49.006;12.100;2023-05-02T08:21:54;48961.53;;;-146.00;80.63
21102;BME280;10709;49.006;12.100;2023-05-02T08:24:21;48961.53;;;-146.00;80.04
21102;BME280;10709;49.006;12.100;2023-05-02T08:26:48;48930.19;;;-146.00;79.26
21102;BME280;10709;49.006;12.100;2023-05-02T08:29:15;48947.81;;;-146.00;79.47
21102;BME280;10709;49.006;12.100;2023-05-02T08:31:42;48936.06;;;-146.00;79.21
21102;BME280;10709;49.006;12.100;2023-05-02T08:34:09;48938.03;;;-146.00;79.37
21102;BME280;10709;49.006;12.100;2023-05-02T08:36:38;48938.03;;;-146.00;78.27
21102;BME280;10709;49.006;12.100;2023-05-02T08:39:06;48910.59;;;-146.00;78.54
21102;BME280;10709;49.006;12.100;2023-05-02T08:41:36;48906.69;;;-146.00;77.83
21102;BME280;10709;49.006;12.100;2023-05-02T08:44:06;48887.09;;;-146.00;78.16
21102;BME280;10709;49.006;12.100;2023-05-02T08:46:40;48926.25;;;-146.00;78.14
21102;BME280;10709;49.006;12.100;2023-05-02T08:49:09;48912.56;;;-146.00;77.99
21102;BME280;10709;49.006;12.100;2023-05-02T08:51:37;48922.34;;;-146.00;77.97
21102;BME280;10709;49.006;12.100;2023-05-02T08:54:09;48871.41;;;-146.00;77.78
21102;BME280;10709;49.006;12.100;2023-05-02T08:56:36;48908.63;;;-146.00;77.46
21102;BME280;10709;49.006;12.100;2023-05-02T08:59:05;48941.94;;;-146.00;77.68
21102;BME280;10709;49.006;12.100;2023-05-02T09:01:32;48918.44;;;-146.00;76.11
21102;BME280;10709;49.006;12.100;2023-05-02T09:04:02;48861.63;;;-146.00;74.89
21102;BME280;10709;49.006;12.100;2023-05-02T09:06:30;48844.00;;;-146.00;74.71
21102;BME280;10709;49.006;12.100;2023-05-02T09:08:59;48844.00;;;-146.00;75.72
21102;BME280;10709;49.006;12.100;2023-05-02T09:11:27;48881.22;;;-146.00;76.16
21102;BME280;10709;49.006;12.100;2023-05-02T09:13:55;48887.09;;;-146.00;75.63
21102;BME280;10709;49.006;12.100;2023-05-02T09:16:26;48840.06;;;-146.00;73.84
21102;BME280;10709;49.006;12.100;2023-05-02T09:18:55;48840.06;;;-146.00;73.78
21102;BME280;10709;49.006;12.100;2023-05-02T09:21:34;48812.63;;;-146.00;73.27
21102;BME280;10709;49.006;12.100;2023-05-02T09:24:14;48871.41;;;-146.00;73.40
21102;BME280;10709;49.006;12.100;2023-05-02T09:26:56;48855.75;;;-146.00;73.38
21102;BME280;10709;49.006;12.100;2023-05-02T09:29:23;48822.44;;;-146.00;72.92
21102;BME280;10709;49.006;12.100;2023-05-02T09:31:50;48840.06;;;-146.00;73.19
21102;BME280;10709;49.006;12.100;2023-05-02T09:34:22;48834.19;;;-146.00;73.28
21102;BME280;10709;49.006;12.100;2023-05-02T09:36:50;48824.41;;;-146.00;72.84
21102;BME280;10709;49.006;12.100;2023-05-02T09:39:27;48844.00;;;-146.00;72.76
21102;BME280;10709;49.006;12.100;2023-05-02T09:41:57;48863.56;;;-146.00;73.34
21102;BME280;10709;49.006;12.100;2023-05-02T09:44:25;48828.31;;;-146.00;73.27
21102;BME280;10709;49.006;12.100;2023-05-02T09:46:53;48806.75;;;-146.00;72.91
21102;BME280;10709;49.006;12.100;2023-05-02T09:49:56;48832.22;;;-146.00;72.34
21102;BME280;10709;49.006;12.100;2023-05-02T09:52:23;48840.06;;;-146.00;72.52
21102;BME280;10709;49.006;12.100;2023-05-02T09:54:50;48820.47;;;-146.00;73.22
21102;BME280;10709;49.006;12.100;2023-05-02T09:57:18;48859.66;;;-146.00;73.40
21102;BME280;10709;49.006;12.100;2023-05-02T10:00:05;48832.22;;;-146.00;72.88
21102;BME280;10709;49.006;12.100;2023-05-02T10:02:32;48836.16;;;-146.00;72.85
21102;BME280;10709;49.006;12.100;2023-05-02T10:05:00;48832.22;;;-146.00;73.10
21102;BME280;10709;49.006;12.100;2023-05-02T10:07:31;48855.75;;;-146.00;73.26
21102;BME280;10709;49.006;12.100;2023-05-02T10:10:00;48840.06;;;-146.00;73.20
21102;BME280;10709;49.006;12.100;2023-05-02T10:12:28;48820.47;;;-146.00;73.48
21102;BME280;10709;49.006;12.100;2023-05-02T10:14:59;48840.06;;;-146.00;73.38
21102;BME280;10709;49.006;12.100;2023-05-02T10:17:30;48867.50;;;-146.00;72.72
21102;BME280;10709;49.006;12.100;2023-05-02T10:20:03;48814.59;;;-146.00;72.90
21102;BME280;10709;49.006;12.100;2023-05-02T10:22:32;48867.50;;;-146.00;73.33
21102;BME280;10709;49.006;12.100;2023-05-02T10:24:59;48844.00;;;-146.00;73.57
21102;BME280;10709;49.006;12.100;2023-05-02T10:27:29;48847.91;;;-146.00;73.05
21102;BME280;10709;49.006;12.100;2023-05-02T10:29:57;48847.91;;;-146.00;73.27
21102;BME280;10709;49.006;12.100;2023-05-02T10:32:26;48851.81;;;-146.00;74.63
21102;BME280;10709;49.006;12.100;2023-05-02T10:35:02;48869.44;;;-146.00;74.47
21102;BME280;10709;49.006;12.100;2023-05-02T10:37:29;48828.31;;;-146.00;74.49
21102;BME280;10709;49.006;12.100;2023-05-02T10:39:59;48836.16;;;-146.00;73.64
21102;BME280;10709;49.006;12.100;2023-05-02T10:42:29;48840.06;;;-146.00;73.44
21102;BME280;10709;49.006;12.100;2023-05-02T10:44:56;48859.66;;;-146.00;73.25
21102;BME280;10709;49.006;12.100;2023-05-02T10:47:25;48851.81;;;-146.00;73.81
21102;BME280;10709;49.006;12.100;2023-05-02T10:49:58;48793.06;;;-146.00;73.31
21102;BME280;10709;49.006;12.100;2023-05-02T10:52:31;48844.00;;;-146.00;72.83
21102;BME280;10709;49.006;12.100;2023-05-02T10:55:20;48808.72;;;-146.00;71.48
21102;BME280;10709;49.006;12.100;2023-05-02T11:00:28;48840.06;;;-146.00;71.54
21102;BME280;10709;49.006;12.100;2023-05-02T11:02:55;48812.63;;;-146.00;70.46
21102;BME280;10709;49.006;12.100;2023-05-02T11:05:23;48808.72;;;-146.00;71.04
21102;BME280;10709;49.006;12.100;2023-05-02T11:10:51;48800.88;;;-146.00;69.61
21102;BME280;10709;49.006;12.100;2023-05-02T11:13:49;48816.56;;;-146.00;70.41
21102;BME280;10709;49.006;12.100;2023-05-02T11:16:16;48824.41;;;-146.00;70.15
21102;BME280;10709;49.006;12.100;2023-05-02T11:19:00;48820.47;;;-146.00;68.78
21102;BME280;10709;49.006;12.100;2023-05-02T11:21:28;48816.56;;;-146.00;68.96
21102;BME280;10709;49.006;12.100;2023-05-02T11:30:03;48812.63;;;-146.00;67.53
21102;BME280;10709;49.006;12.100;2023-05-02T11:35:23;48824.41;;;-146.00;66.10
21102;BME280;10709;49.006;12.100;2023-05-02T11:38:00;48802.84;;;-146.00;64.77
21102;BME280;10709;49.006;12.100;2023-05-02T11:40:29;48755.84;;;-146.00;63.94
21102;BME280;10709;49.006;12.100;2023-05-02T11:42:56;48789.13;;;-146.00;62.94
21102;BME280;10709;49.006;12.100;2023-05-02T11:45:34;48793.06;;;-146.00;63.89
21102;BME280;10709;49.006;12.100;2023-05-02T11:48:07;48779.34;;;-146.00;63.59
21102;BME280;10709;49.006;12.100;2023-05-02T11:50:51;48777.38;;;-146.00;63.67
21102;BME280;10709;49.006;12.100;2023-05-02T11:53:21;48798.94;;;-146.00;64.13
21102;BME280;10709;49.006;12.100;2023-05-02T11:55:52;48793.06;;;-146.00;62.41
21102;BME280;10709;49.006;12.100;2023-05-02T11:58:21;48789.13;;;-146.00;63.05
21102;BME280;10709;49.006;12.100;2023-05-02T12:00:50;48767.59;;;-146.00;61.66
21102;BME280;10709;49.006;12.100;2023-05-02T12:03:25;48757.78;;;-146.00;61.92
21102;BME280;10709;49.006;12.100;2023-05-02T12:05:55;48781.31;;;-146.00;63.24
21102;BME280;10709;49.006;12.100;2023-05-02T12:08:26;48779.34;;;-146.00;62.45
21102;BME280;10709;49.006;12.100;2023-05-02T12:10:54;48810.69;;;-146.00;63.19
21102;BME280;10709;49.006;12.100;2023-05-02T12:13:23;48808.72;;;-146.00;62.76
21102;BME280;10709;49.006;12.100;2023-05-02T12:15:52;48781.31;;;-146.00;62.46
21102;BME280;10709;49.006;12.100;2023-05-02T12:18:21;48785.22;;;-146.00;62.80
21102;BME280;10709;49.006;12.100;2023-05-02T12:20:50;48781.31;;;-146.00;62.53
21102;BME280;10709;49.006;12.100;2023-05-02T12:23:22;48769.53;;;-146.00;60.61
21102;BME280;10709;49.006;12.100;2023-05-02T12:25:51;48767.59;;;-146.00;60.74
21102;BME280;10709;49.006;12.100;2023-05-02T12:28:19;48785.22;;;-146.00;60.56
21102;BME280;10709;49.006;12.100;2023-05-02T12:30:49;48789.13;;;-146.00;60.65
21102;BME280;10709;49.006;12.100;2023-05-02T12:33:17;48789.13;;;-146.00;60.68
21102;BME280;10709;49.006;12.100;2023-05-02T12:35:44;48781.31;;;-146.00;60.92
21102;BME280;10709;49.006;12.100;2023-05-02T12:38:19;48777.38;;;-146.00;60.26
21102;BME280;10709;49.006;12.100;2023-05-02T12:40:51;48808.72;;;-146.00;61.23
21102;BME280;10709;49.006;12.100;2023-05-02T12:43:20;48777.38;;;-146.00;60.77
21102;BME280;10709;49.006;12.100;2023-05-02T12:45:47;48781.31;;;-146.00;60.10
21102;BME280;10709;49.006;12.100;2023-05-02T12:48:26;48767.59;;;-146.00;60.01
21102;BME280;10709;49.006;12.100;2023-05-02T12:50:53;48785.22;;;-146.00;59.58
21102;BME280;10709;49.006;12.100;2023-05-02T12:53:43;48804.81;;;-146.00;58.68
21102;BME280;10709;49.006;12.100;2023-05-02T12:56:12;48746.03;;;-146.00;59.84
21102;BME280;10709;49.006;12.100;2023-05-02T12:58:48;48779.34;;;-146.00;59.55
21102;BME280;10709;49.006;12.100;2023-05-02T13:01:18;48781.31;;;-146.00;60.44
21102;BME280;10709;49.006;12.100;2023-05-02T13:03:44;48793.06;;;-146.00;60.92
21102;BME280;10709;49.006;12.100;2023-05-02T13:06:12;48824.41;;;-146.00;66.22